Badan Meteorologi, Klimatologi, dan Geofisika

CUACA TERKINI BANDARA KUALANAMU

Jumat, 19 Juli 2019 22:07 UTC

Cuaca : Berawan

Angin : Tenang

Jarak Pandang : 6.0 km

Suhu : 25 °C

Waktu Pengamatan : 04:30 WIB

Selengkapnya>>>

DATA METEOROLOGI KUALANAMU

Data Metar Terbaru

TAF WIMM 191700Z 1918/2018 21005KT 4500 HZ SCT017 BECMG 2001/2003 VRB06KT 9000 NSW =

Selengkapnya>>>

Data TAF Terbaru

TAF WIMM 191700Z 1918/2018 21005KT 4500 HZ SCT017 BECMG 2001/2003 VRB06KT 9000 NSW =

Selengkapnya>>>

CITRA SATELIT

Enhanced
Citra Satelit
Cloud Type
Citra Satelit IR
Hotspot
Citra Satelit
Sebaran Asap
Citra Satelit